Time;durP1;ratioP1;P1;durP2;ratioP2;P2;SDS_P1;SDS_P2;PMS_P1;PMS_P2;Temp;Humidity;BMP_temperature;BMP_pressure;BME280_temperature;BME280_humidity;BME280_pressure;Samples;Min_cycle;Max_cycle;Signal;HPM_P1;HPM_P2
2021/03/21 00:00:26;;;;;;;6.07;2.60;;;18.60;99.90;;;;;;5050889;28;20029;-69
2021/03/21 00:02:52;;;;;;;6.75;2.67;;;18.50;99.90;;;;;;5051073;28;20041;-70
2021/03/21 00:05:18;;;;;;;6.60;2.47;;;18.50;99.90;;;;;;5051064;28;20025;-70
2021/03/21 00:07:43;;;;;;;6.18;2.47;;;18.50;99.90;;;;;;5051319;28;20029;-67
2021/03/21 00:10:10;;;;;;;8.77;2.92;;;18.50;99.90;;;;;;5051143;28;20025;-67
2021/03/21 00:12:36;;;;;;;6.90;2.88;;;18.50;99.90;;;;;;5051411;28;20092;-70
2021/03/21 00:15:04;;;;;;;5.97;2.65;;;18.40;99.90;;;;;;5051199;28;20112;-71
2021/03/21 00:17:30;;;;;;;11.98;2.97;;;18.40;99.90;;;;;;5051162;28;20025;-66
2021/03/21 00:19:55;;;;;;;6.18;2.65;;;18.40;99.90;;;;;;5051280;28;20032;-67
2021/03/21 00:22:21;;;;;;;5.13;2.72;;;18.40;99.90;;;;;;5051143;28;20029;-70
2021/03/21 00:24:47;;;;;;;5.72;2.70;;;18.30;99.90;;;;;;5051523;28;20457;-70
2021/03/21 00:27:12;;;;;;;7.53;3.03;;;18.30;99.90;;;;;;5054665;28;20048;-68
2021/03/21 00:29:40;;;;;;;7.95;3.30;;;18.30;99.90;;;;;;5054224;28;20037;-68
2021/03/21 00:32:06;;;;;;;6.07;2.92;;;18.30;99.90;;;;;;5055063;28;20024;-69
2021/03/21 00:34:32;;;;;;;9.48;3.03;;;18.30;99.90;;;;;;5054683;28;20017;-70
2021/03/21 00:36:57;;;;;;;4.47;2.83;;;18.30;99.90;;;;;;5054745;28;20029;-70
2021/03/21 00:39:23;;;;;;;7.60;2.80;;;18.30;99.90;;;;;;5054561;28;20017;-69
2021/03/21 00:41:49;;;;;;;6.45;2.75;;;18.20;99.90;;;;;;5054547;28;20378;-68
2021/03/21 00:44:14;;;;;;;4.30;2.97;;;18.20;99.90;;;;;;5054461;28;20029;-70
2021/03/21 00:46:40;;;;;;;5.05;2.63;;;18.20;99.90;;;;;;5055074;28;20025;-70
2021/03/21 00:49:05;;;;;;;7.28;2.70;;;18.20;99.90;;;;;;5054589;28;20448;-71
2021/03/21 00:51:31;;;;;;;4.57;2.90;;;18.20;99.90;;;;;;5054334;28;20021;-71
2021/03/21 00:53:57;;;;;;;5.80;2.80;;;18.20;99.90;;;;;;5054416;28;20029;-71
2021/03/21 00:56:31;;;;;;;4.53;2.65;;;18.10;99.90;;;;;;5054502;28;20116;-70
2021/03/21 00:58:58;;;;;;;4.30;3.08;;;18.10;99.90;;;;;;5054041;28;20052;-70
2021/03/21 01:01:24;;;;;;;6.10;2.70;;;18.10;99.90;;;;;;5054058;28;20044;-70
2021/03/21 01:03:50;;;;;;;6.28;2.80;;;18.10;99.90;;;;;;5054207;28;20021;-70
2021/03/21 01:06:16;;;;;;;4.00;2.83;;;18.10;99.90;;;;;;5054222;28;20029;-69
2021/03/21 01:08:42;;;;;;;3.97;2.72;;;18.10;99.90;;;;;;5054000;28;20024;-69
2021/03/21 01:11:18;;;;;;;6.63;3.28;;;18.10;99.90;;;;;;5054296;28;20465;-69
2021/03/21 01:13:44;;;;;;;4.05;2.67;;;18.00;99.90;;;;;;5054367;28;20017;-65
2021/03/21 01:16:15;;;;;;;8.20;3.60;;;18.00;99.90;;;;;;5054206;28;20025;-69
2021/03/21 01:18:41;;;;;;;6.72;3.20;;;18.00;99.90;;;;;;5054211;28;20029;-65
2021/03/21 01:21:11;;;;;;;6.43;3.08;;;18.00;99.90;;;;;;5053846;28;20031;-64
2021/03/21 01:23:38;;;;;;;4.57;2.95;;;18.00;99.90;;;;;;5053590;28;20468;-65
2021/03/21 01:26:04;;;;;;;4.43;3.15;;;18.00;99.90;;;;;;5053706;28;20029;-63
2021/03/21 01:28:35;;;;;;;5.78;3.00;;;18.00;99.90;;;;;;5053499;28;20112;-65
2021/03/21 01:31:04;;;;;;;5.03;3.20;;;18.00;99.90;;;;;;5053163;28;20492;-64
2021/03/21 01:33:32;;;;;;;7.10;3.30;;;18.00;99.90;;;;;;5053624;28;20025;-67
2021/03/21 01:35:59;;;;;;;5.20;3.22;;;18.00;99.90;;;;;;5052678;28;20036;-65
2021/03/21 01:38:25;;;;;;;7.60;3.00;;;17.90;99.90;;;;;;5052802;28;20516;-66
2021/03/21 01:40:57;;;;;;;5.63;3.30;;;17.90;99.90;;;;;;5053448;28;20071;-63
2021/03/21 01:43:29;;;;;;;3.65;2.90;;;17.90;99.90;;;;;;5053563;28;20028;-67
2021/03/21 01:45:55;;;;;;;4.93;3.25;;;17.90;99.90;;;;;;5053744;28;20021;-68
2021/03/21 01:48:34;;;;;;;7.40;3.53;;;17.90;99.90;;;;;;5053327;28;20047;-70
2021/03/21 01:51:11;;;;;;;5.18;3.30;;;17.90;99.90;;;;;;5053223;28;20036;-64
2021/03/21 01:53:39;;;;;;;4.55;3.22;;;17.90;99.90;;;;;;5052089;28;20032;-64
2021/03/21 01:56:06;;;;;;;5.40;4.35;;;17.90;99.90;;;;;;5053275;28;20020;-63
2021/03/21 01:58:34;;;;;;;6.18;3.50;;;17.90;99.90;;;;;;5053013;28;20343;-63
2021/03/21 02:01:07;;;;;;;6.25;3.65;;;17.90;99.90;;;;;;5053049;28;20548;-65
2021/03/21 02:03:32;;;;;;;5.55;3.47;;;17.80;99.90;;;;;;5053026;28;20060;-68
2021/03/21 02:06:21;;;;;;;5.43;3.63;;;17.80;99.90;;;;;;5053062;28;20402;-63
2021/03/21 02:09:04;;;;;;;5.30;3.75;;;17.80;99.90;;;;;;5052842;28;20362;-68
2021/03/21 02:12:02;;;;;;;5.47;3.67;;;17.80;99.90;;;;;;5053022;28;20100;-63
2021/03/21 02:14:42;;;;;;;5.13;4.00;;;17.80;99.90;;;;;;5036851;28;20061;-64
2021/03/21 02:17:26;;;;;;;5.80;3.83;;;17.80;99.90;;;;;;5052898;28;20100;-63
2021/03/21 02:20:21;;;;;;;6.43;4.07;;;17.80;99.90;;;;;;5052874;28;20025;-65
2021/03/21 02:23:15;;;;;;;4.68;3.50;;;17.70;99.90;;;;;;5035424;28;20041;-63
2021/03/21 02:26:11;;;;;;;6.45;4.30;;;17.70;99.90;;;;;;5052936;28;20409;-63
2021/03/21 02:29:01;;;;;;;4.45;3.28;;;17.70;99.90;;;;;;5052244;28;20139;-63
2021/03/21 02:31:37;;;;;;;5.45;3.70;;;17.70;99.90;;;;;;5052546;28;20091;-63
2021/03/21 02:34:14;;;;;;;5.75;3.97;;;17.70;99.90;;;;;;5052621;28;20028;-64
2021/03/21 02:36:49;;;;;;;8.90;4.18;;;17.70;99.90;;;;;;5052230;28;20358;-65
2021/03/21 02:39:44;;;;;;;7.18;4.38;;;17.70;99.90;;;;;;5052471;28;20469;-63
2021/03/21 02:42:15;;;;;;;6.78;4.57;;;17.70;99.90;;;;;;5052415;28;20119;-68
2021/03/21 02:44:47;;;;;;;5.25;3.72;;;17.70;99.90;;;;;;5051923;28;20021;-67
2021/03/21 02:47:27;;;;;;;6.60;4.28;;;17.60;99.90;;;;;;5052213;28;20025;-67
2021/03/21 02:49:55;;;;;;;6.57;4.32;;;17.60;99.90;;;;;;5051966;28;20074;-65
2021/03/21 02:52:32;;;;;;;6.65;4.45;;;17.60;99.90;;;;;;5052271;28;20025;-63
2021/03/21 02:55:25;;;;;;;5.72;4.28;;;17.60;99.90;;;;;;5052116;28;20025;-63
2021/03/21 02:58:15;;;;;;;9.40;4.27;;;17.60;99.90;;;;;;5047523;28;20061;-64
2021/03/21 03:00:51;;;;;;;8.10;4.30;;;17.60;99.90;;;;;;5051706;28;20056;-64
2021/03/21 03:03:20;;;;;;;5.55;4.60;;;17.50;99.90;;;;;;5052360;28;20029;-64
2021/03/21 03:05:53;;;;;;;8.80;4.72;;;17.50;99.90;;;;;;5052161;28;20096;-68
2021/03/21 03:08:34;;;;;;;5.45;4.47;;;17.50;99.90;;;;;;5051407;28;20025;-68
2021/03/21 03:11:05;;;;;;;6.93;5.00;;;17.50;99.90;;;;;;5052021;28;20520;-67
2021/03/21 03:13:50;;;;;;;5.75;4.68;;;17.50;99.90;;;;;;5051959;28;20036;-68
2021/03/21 03:16:40;;;;;;;8.43;4.68;;;17.50;99.90;;;;;;5052232;28;20086;-64
2021/03/21 03:19:17;;;;;;;7.38;4.93;;;17.50;99.90;;;;;;5052024;28;20389;-64
2021/03/21 03:22:03;;;;;;;6.35;5.05;;;17.50;99.90;;;;;;5051748;28;20109;-64
2021/03/21 03:24:34;;;;;;;7.90;5.07;;;17.40;99.90;;;;;;5051949;28;20021;-68
2021/03/21 03:27:36;;;;;;;8.25;5.50;;;17.40;99.90;;;;;;5051605;28;20107;-66
2021/03/21 03:30:17;;;;;;;7.05;5.30;;;17.40;99.90;;;;;;5051717;28;20025;-65
2021/03/21 03:32:43;;;;;;;7.82;5.35;;;17.40;99.90;;;;;;5051783;28;20122;-63
2021/03/21 03:35:12;;;;;;;7.53;5.60;;;17.40;99.90;;;;;;5051690;28;20497;-64
2021/03/21 03:37:38;;;;;;;6.95;5.20;;;17.40;99.90;;;;;;5051595;28;20032;-63
2021/03/21 03:40:06;;;;;;;7.15;5.78;;;17.40;99.90;;;;;;5051676;28;20044;-64
2021/03/21 03:43:05;;;;;;;7.18;5.32;;;17.40;99.90;;;;;;5051434;28;20033;-65
2021/03/21 03:45:57;;;;;;;7.00;5.28;;;17.40;99.90;;;;;;5051253;28;20428;-63
2021/03/21 03:49:04;;;;;;;7.95;5.55;;;17.40;99.90;;;;;;5051528;28;20036;-62
2021/03/21 03:51:58;;;;;;;8.63;5.53;;;17.30;99.90;;;;;;5009917;28;20110;-64
2021/03/21 03:54:44;;;;;;;8.30;5.68;;;17.30;99.90;;;;;;5009861;28;20056;-63
2021/03/21 03:57:15;;;;;;;7.10;5.05;;;17.30;99.90;;;;;;5028601;28;20186;-64
2021/03/21 03:59:59;;;;;;;8.90;6.00;;;17.30;99.90;;;;;;5051588;28;20029;-64
2021/03/21 04:02:50;;;;;;;7.15;5.20;;;17.30;99.90;;;;;;5055182;28;20389;-63
2021/03/21 04:05:23;;;;;;;8.25;5.43;;;17.30;99.90;;;;;;5055311;28;20479;-63
2021/03/21 04:08:00;;;;;;;6.53;5.20;;;17.30;99.90;;;;;;5055369;28;20470;-63
2021/03/21 04:10:55;;;;;;;7.97;5.68;;;17.30;99.90;;;;;;5055279;28;20037;-62
2021/03/21 04:13:37;;;;;;;7.75;5.63;;;17.30;99.90;;;;;;5052954;28;20040;-63
2021/03/21 04:16:03;;;;;;;7.72;5.18;;;17.30;99.90;;;;;;5055147;28;20025;-63
2021/03/21 04:18:38;;;;;;;8.02;5.47;;;17.30;99.90;;;;;;5055124;28;20028;-63
2021/03/21 04:21:30;;;;;;;7.32;5.10;;;17.30;99.90;;;;;;5054893;28;20029;-66
2021/03/21 04:24:10;;;;;;;9.23;5.07;;;17.20;99.90;;;;;;5055115;28;20028;-62
2021/03/21 04:26:43;;;;;;;7.75;4.70;;;17.20;99.90;;;;;;5055183;28;20370;-63
2021/03/21 04:29:48;;;;;;;7.20;5.15;;;17.20;99.90;;;;;;5054807;28;20385;-64
2021/03/21 04:32:18;;;;;;;6.50;4.97;;;17.20;99.90;;;;;;5054976;28;20040;-63
2021/03/21 04:34:50;;;;;;;8.02;5.18;;;17.20;99.90;;;;;;5054843;28;20017;-65
2021/03/21 04:37:17;;;;;;;7.28;5.13;;;17.30;99.90;;;;;;5054794;28;20021;-64
2021/03/21 04:39:45;;;;;;;8.57;4.65;;;17.20;99.90;;;;;;5054540;28;20055;-63
2021/03/21 04:42:18;;;;;;;6.78;5.00;;;17.20;99.90;;;;;;5054545;28;20106;-63
2021/03/21 04:45:04;;;;;;;7.80;4.22;;;17.20;99.90;;;;;;5034570;28;20378;-68
2021/03/21 04:47:36;;;;;;;9.68;4.90;;;17.20;99.90;;;;;;5034663;28;20036;-63
2021/03/21 04:50:03;;;;;;;6.90;5.00;;;17.20;99.90;;;;;;5034380;28;20132;-67
2021/03/21 04:53:02;;;;;;;8.60;4.53;;;17.20;99.90;;;;;;5034499;28;20065;-63
2021/03/21 04:55:43;;;;;;;10.00;5.07;;;17.20;99.90;;;;;;5034489;28;20033;-68
2021/03/21 04:58:38;;;;;;;6.50;4.50;;;17.20;99.90;;;;;;5034372;28;20109;-63
2021/03/21 05:01:11;;;;;;;7.70;4.82;;;17.20;99.90;;;;;;5034471;28;20160;-66
2021/03/21 05:03:43;;;;;;;6.97;4.28;;;17.20;99.90;;;;;;5034550;28;20029;-65
2021/03/21 05:06:41;;;;;;;7.95;4.40;;;17.20;99.90;;;;;;5040982;28;20506;-67
2021/03/21 05:09:14;;;;;;;7.47;4.47;;;17.20;99.90;;;;;;5018419;28;20393;-67
2021/03/21 05:12:13;;;;;;;7.20;4.60;;;17.20;99.90;;;;;;5054162;28;20397;-69
2021/03/21 05:14:50;;;;;;;7.32;4.45;;;17.20;99.90;;;;;;5052291;28;20401;-68
2021/03/21 05:17:40;;;;;;;5.65;3.88;;;17.20;99.90;;;;;;5053969;28;20024;-66
2021/03/21 05:20:23;;;;;;;5.47;4.28;;;17.20;99.90;;;;;;5054088;28;20036;-68
2021/03/21 05:23:04;;;;;;;6.53;4.18;;;17.20;99.90;;;;;;5053849;28;20119;-67
2021/03/21 05:25:48;;;;;;;6.28;3.80;;;17.20;99.90;;;;;;5053925;28;20090;-67
2021/03/21 05:28:23;;;;;;;;;;;17.20;99.90;;;;;;5054017;28;20389;-63
2021/03/21 05:30:49;;;;;;;5.40;4.07;;;17.20;99.90;;;;;;5052414;28;20377;-66
2021/03/21 05:33:15;;;;;;;6.20;4.07;;;17.20;99.90;;;;;;5053674;28;20176;-64
2021/03/21 05:35:41;;;;;;;6.80;3.65;;;17.20;99.90;;;;;;5053780;28;20021;-68
2021/03/21 05:38:36;;;;;;;8.63;4.18;;;17.20;99.90;;;;;;5053535;28;20033;-67
2021/03/21 05:41:25;;;;;;;9.20;4.20;;;17.20;99.90;;;;;;5053540;28;20033;-63
2021/03/21 05:43:57;;;;;;;5.82;4.00;;;17.20;99.90;;;;;;5053190;28;20049;-66
2021/03/21 05:47:00;;;;;;;6.93;4.07;;;17.20;99.90;;;;;;5053371;28;20021;-66
2021/03/21 05:49:56;;;;;;;8.05;4.30;;;17.20;99.90;;;;;;5053470;28;20033;-66
2021/03/21 05:52:30;;;;;;;6.22;3.90;;;17.20;99.90;;;;;;5053288;28;20095;-67
2021/03/21 05:55:06;;;;;;;6.32;4.15;;;17.20;99.90;;;;;;5053583;28;20108;-64
2021/03/21 05:57:32;;;;;;;6.00;3.80;;;17.20;99.90;;;;;;5053365;28;20025;-68
2021/03/21 06:00:16;;;;;;;10.30;3.90;;;17.20;99.90;;;;;;5053041;28;20100;-69
2021/03/21 06:03:07;;;;;;;11.75;3.60;;;17.20;99.90;;;;;;5045001;28;20052;-63
2021/03/21 06:06:04;;;;;;;4.75;3.90;;;17.20;99.90;;;;;;5053153;28;20028;-66
2021/03/21 06:09:02;;;;;;;8.60;3.90;;;17.20;99.90;;;;;;5051669;28;20017;-62
2021/03/21 06:11:38;;;;;;;6.63;3.83;;;17.20;99.90;;;;;;5031875;28;20045;-62
2021/03/21 06:14:06;;;;;;;9.85;4.03;;;17.20;99.90;;;;;;5052972;28;20075;-63
2021/03/21 06:16:40;;;;;;;5.03;3.75;;;17.20;99.90;;;;;;5052869;28;20095;-64
2021/03/21 06:19:37;;;;;;;7.90;3.80;;;17.20;99.90;;;;;;5052834;28;20025;-63
2021/03/21 06:22:30;;;;;;;6.75;3.83;;;17.20;99.90;;;;;;5052787;28;20029;-64
2021/03/21 06:25:32;;;;;;;4.45;3.70;;;17.20;99.90;;;;;;5053071;28;20029;-63
2021/03/21 06:28:35;;;;;;;4.75;3.30;;;17.20;99.90;;;;;;5052770;28;20047;-62
2021/03/21 06:31:19;;;;;;;7.43;3.80;;;17.20;99.90;;;;;;5052783;28;20056;-67
2021/03/21 06:34:12;;;;;;;6.90;3.53;;;17.20;99.90;;;;;;5037157;28;20025;-63
2021/03/21 06:36:45;;;;;;;5.93;3.88;;;17.20;99.90;;;;;;5052518;28;20029;-63
2021/03/21 06:39:44;;;;;;;5.18;3.50;;;17.20;99.90;;;;;;5052380;28;20021;-63
2021/03/21 06:42:18;;;;;;;5.30;3.55;;;17.20;99.90;;;;;;5052348;28;20488;-63
2021/03/21 06:45:21;;;;;;;4.18;3.55;;;17.20;99.90;;;;;;5052306;28;20021;-61
2021/03/21 06:48:24;;;;;;;5.47;3.85;;;17.20;99.90;;;;;;5052118;28;20036;-64
2021/03/21 06:51:07;;;;;;;6.78;4.95;;;17.20;99.90;;;;;;5050301;28;20443;-63
2021/03/21 06:53:39;;;;;;;6.20;4.78;;;17.10;99.90;;;;;;5052364;28;20105;-61
2021/03/21 06:56:31;;;;;;;6.30;4.35;;;16.90;99.90;;;;;;5052036;28;20104;-62
2021/03/21 06:59:24;;;;;;;5.55;4.43;;;16.80;99.90;;;;;;5045965;28;20098;-63
2021/03/21 07:01:58;;;;;;;6.70;4.45;;;16.70;99.90;;;;;;5050548;28;20041;-61
2021/03/21 07:04:57;;;;;;;6.70;4.35;;;16.80;99.90;;;;;;5049724;28;20036;-66
2021/03/21 07:07:59;;;;;;;5.68;4.00;;;16.90;99.90;;;;;;5050746;28;20025;-62
2021/03/21 07:10:56;;;;;;;5.70;3.83;;;17.00;99.90;;;;;;5048381;28;20511;-63
2021/03/21 07:14:02;;;;;;;5.05;3.88;;;17.10;99.90;;;;;;5050386;28;20392;-63
2021/03/21 07:16:46;;;;;;;4.88;3.70;;;17.20;99.90;;;;;;5047674;28;20098;-65
2021/03/21 07:19:36;;;;;;;4.10;3.55;;;17.20;99.90;;;;;;5049167;28;20067;-65
2021/03/21 07:22:32;;;;;;;4.82;3.60;;;17.30;99.90;;;;;;5050636;28;20068;-66
2021/03/21 07:25:10;;;;;;;5.05;3.67;;;17.40;99.90;;;;;;5051754;28;20123;-65
2021/03/21 07:28:09;;;;;;;5.25;3.38;;;17.40;99.60;;;;;;5051457;28;20025;-65
2021/03/21 07:30:53;;;;;;;5.03;3.58;;;17.50;99.50;;;;;;5050454;28;20550;-65
2021/03/21 07:33:40;;;;;;;4.25;3.38;;;17.60;99.40;;;;;;5051610;28;20049;-68
2021/03/21 07:36:30;;;;;;;4.97;3.33;;;17.70;99.60;;;;;;5053690;28;20032;-65
2021/03/21 07:39:10;;;;;;;3.45;2.63;;;17.70;99.50;;;;;;5055922;28;20041;-64
2021/03/21 07:41:45;;;;;;;6.63;2.75;;;17.70;99.50;;;;;;5052072;28;20037;-65
2021/03/21 07:44:19;;;;;;;4.70;2.78;;;17.70;99.60;;;;;;5055508;28;20032;-66
2021/03/21 07:47:03;;;;;;;;;;;17.70;99.50;;;;;;5055004;28;20039;-65
2021/03/21 07:49:57;;;;;;;6.40;2.87;;;17.80;99.50;;;;;;5054379;28;19999;-64
2021/03/21 07:52:29;;;;;;;10.27;2.87;;;17.90;99.90;;;;;;5055387;28;20279;-67
2021/03/21 07:55:03;;;;;;;11.23;2.63;;;18.00;99.90;;;;;;5055334;28;20530;-64
2021/03/21 07:57:40;;;;;;;4.28;2.38;;;18.00;99.80;;;;;;5054418;28;20035;-67
2021/03/21 08:00:10;;;;;;;8.93;2.70;;;18.10;99.70;;;;;;5054693;28;20025;-65
2021/03/21 08:02:35;;;;;;;7.63;2.60;;;18.20;99.90;;;;;;5055278;28;20029;-62
2021/03/21 08:05:12;;;;;;;6.43;2.30;;;18.20;99.90;;;;;;5055346;28;20044;-65
2021/03/21 08:07:41;;;;;;;5.47;2.40;;;18.30;99.80;;;;;;5053656;28;20481;-68
2021/03/21 08:10:20;;;;;;;5.38;2.30;;;18.30;99.40;;;;;;5053747;28;20025;-66
2021/03/21 08:12:58;;;;;;;4.85;1.80;;;18.20;98.90;;;;;;5052072;28;20043;-68
2021/03/21 08:15:28;;;;;;;3.80;1.80;;;18.20;98.80;;;;;;5045246;28;20017;-68
2021/03/21 08:18:03;;;;;;;5.00;2.33;;;18.20;98.90;;;;;;5052873;28;20052;-66
2021/03/21 08:20:38;;;;;;;4.85;1.70;;;18.20;98.50;;;;;;5050506;28;20045;-71
2021/03/21 08:23:25;;;;;;;2.83;1.73;;;18.20;98.80;;;;;;5050994;28;20036;-66
2021/03/21 08:25:55;;;;;;;2.78;1.40;;;18.30;99.40;;;;;;5053042;28;20028;-69
2021/03/21 08:28:23;;;;;;;3.45;1.58;;;18.30;99.80;;;;;;5053797;28;20382;-65
2021/03/21 08:30:54;;;;;;;3.38;1.48;;;18.30;99.30;;;;;;5053768;28;20550;-70
2021/03/21 08:33:42;;;;;;;4.55;1.70;;;18.40;98.70;;;;;;5053703;28;20044;-69
2021/03/21 08:36:23;;;;;;;3.25;1.60;;;18.40;99.60;;;;;;5053922;28;20044;-73
2021/03/21 08:38:58;;;;;;;7.10;2.20;;;18.10;96.80;;;;;;5053340;28;20079;-75
2021/03/21 08:41:25;;;;;;;6.28;1.60;;;17.30;95.80;;;;;;5045874;28;20041;-65
2021/03/21 08:44:06;;;;;;;6.10;1.60;;;17.00;96.00;;;;;;5052054;28;20025;-66
2021/03/21 08:46:33;;;;;;;6.22;1.90;;;16.80;95.80;;;;;;5053462;28;20108;-64
2021/03/21 08:49:15;;;;;;;5.93;1.80;;;16.50;95.90;;;;;;5053593;28;20039;-65
2021/03/21 08:51:42;;;;;;;4.63;1.60;;;17.00;96.80;;;;;;5053729;28;20025;-64
2021/03/21 08:54:07;;;;;;;4.60;1.33;;;17.50;96.50;;;;;;5053057;28;20428;-64
2021/03/21 08:56:36;;;;;;;5.15;1.42;;;17.80;96.30;;;;;;5053205;28;20028;-64
2021/03/21 08:59:24;;;;;;;5.00;1.02;;;18.00;96.20;;;;;;5053405;28;20021;-62
2021/03/21 09:02:13;;;;;;;4.10;1.30;;;18.20;96.40;;;;;;5043838;28;20033;-63
2021/03/21 09:04:42;;;;;;;3.65;1.25;;;18.40;96.60;;;;;;5050269;28;20031;-63
2021/03/21 09:07:21;;;;;;;7.20;1.65;;;18.40;96.40;;;;;;5053326;28;20056;-61
2021/03/21 09:10:24;;;;;;;3.47;1.40;;;18.60;96.40;;;;;;5060412;28;20075;-64
2021/03/21 09:12:55;;;;;;;3.03;1.10;;;18.70;96.30;;;;;;5045024;28;20033;-62
2021/03/21 09:15:24;;;;;;;4.32;1.25;;;18.80;96.20;;;;;;5051841;28;20037;-63
2021/03/21 09:18:04;;;;;;;3.65;1.30;;;19.00;96.00;;;;;;5051933;28;20033;-62
2021/03/21 09:20:32;;;;;;;6.07;1.50;;;19.00;96.00;;;;;;5052734;28;20496;-61
2021/03/21 09:22:58;;;;;;;5.82;1.10;;;19.10;96.00;;;;;;5050322;28;20041;-62
2021/03/21 09:25:28;;;;;;;3.70;1.27;;;19.20;96.10;;;;;;5051709;28;20021;-62
2021/03/21 09:27:58;;;;;;;3.60;1.10;;;19.30;95.80;;;;;;5051444;28;20033;-62
2021/03/21 09:30:39;;;;;;;3.65;1.15;;;19.30;95.60;;;;;;5052286;28;20112;-60
2021/03/21 09:33:26;;;;;;;3.50;1.10;;;19.40;95.60;;;;;;5053123;28;20048;-61
2021/03/21 09:36:10;;;;;;;4.03;0.90;;;19.50;96.00;;;;;;5021799;28;20051;-61
2021/03/21 09:38:40;;;;;;;;;;;19.60;95.60;;;;;;5050137;28;20032;-61
2021/03/21 09:41:10;;;;;;;3.92;1.17;;;19.60;95.60;;;;;;5053196;28;19908;-61
2021/03/21 09:43:38;;;;;;;3.40;1.20;;;19.70;95.50;;;;;;5052512;28;20021;-60
2021/03/21 09:46:27;;;;;;;3.10;1.02;;;19.70;95.30;;;;;;5053001;28;20075;-61
2021/03/21 09:49:17;;;;;;;2.58;0.95;;;19.70;95.10;;;;;;5052563;28;20408;-61
2021/03/21 09:52:10;;;;;;;4.93;1.25;;;19.80;95.10;;;;;;5052646;28;20448;-62
2021/03/21 09:54:40;;;;;;;4.00;0.90;;;19.90;95.10;;;;;;5052764;28;20029;-61
2021/03/21 09:57:44;;;;;;;3.58;1.10;;;19.90;94.90;;;;;;5052862;28;20082;-62
2021/03/21 10:00:20;;;;;;;2.88;1.00;;;20.00;95.20;;;;;;5052411;28;20053;-62
2021/03/21 10:02:59;;;;;;;5.15;1.30;;;20.10;94.90;;;;;;5052111;28;20494;-60
2021/03/21 10:05:27;;;;;;;6.03;0.90;;;20.10;96.70;;;;;;5052342;28;20024;-61
2021/03/21 10:08:03;;;;;;;3.58;1.00;;;20.10;96.20;;;;;;5051936;28;20024;-63
2021/03/21 10:10:37;;;;;;;2.92;0.88;;;20.10;95.40;;;;;;5068484;28;20024;-62
2021/03/21 10:13:03;;;;;;;;;;;20.20;95.20;;;;;;5072899;28;20017;-62
2021/03/21 10:15:29;;;;;;;3.28;1.00;;;20.20;94.80;;;;;;5063636;28;19911;-63
2021/03/21 10:18:00;;;;;;;2.20;0.95;;;20.30;94.50;;;;;;5069853;28;20499;-61
2021/03/21 10:20:52;;;;;;;3.85;1.23;;;20.30;94.70;;;;;;5052344;28;20027;-62
2021/03/21 10:23:17;;;;;;;2.88;0.90;;;20.40;94.30;;;;;;5056363;28;20051;-61
2021/03/21 10:25:43;;;;;;;2.70;1.00;;;20.40;94.40;;;;;;5071780;28;20119;-62
2021/03/21 10:28:29;;;;;;;3.72;1.23;;;20.40;94.80;;;;;;5071751;28;20028;-61
2021/03/21 10:31:23;;;;;;;5.40;1.20;;;20.40;94.40;;;;;;5065482;28;20350;-61
2021/03/21 10:34:16;;;;;;;2.72;0.90;;;20.50;94.00;;;;;;5050249;28;20025;-64
2021/03/21 10:36:42;;;;;;;5.32;1.40;;;20.50;94.80;;;;;;5051732;28;20503;-61
2021/03/21 10:39:12;;;;;;;5.25;1.30;;;20.50;94.70;;;;;;5051551;28;20029;-63
2021/03/21 10:42:09;;;;;;;4.32;1.20;;;20.60;94.50;;;;;;5051731;28;20029;-64
2021/03/21 10:44:35;;;;;;;2.88;0.95;;;20.60;94.40;;;;;;5052207;28;20033;-63
2021/03/21 10:47:04;;;;;;;4.75;1.10;;;20.70;93.90;;;;;;5051748;28;20361;-63
2021/03/21 10:49:51;;;;;;;4.15;1.10;;;20.70;94.20;;;;;;5051006;28;20400;-63
2021/03/21 10:52:47;;;;;;;8.10;1.23;;;20.70;94.40;;;;;;5051450;28;20028;-64
2021/03/21 10:55:16;;;;;;;3.75;0.93;;;20.80;93.80;;;;;;5042462;28;20099;-62
2021/03/21 10:57:45;;;;;;;6.35;1.40;;;20.80;93.70;;;;;;5050830;28;20516;-61
2021/03/21 11:00:30;;;;;;;4.55;1.00;;;20.90;95.10;;;;;;5051299;28;20114;-61
2021/03/21 11:03:02;;;;;;;3.25;0.93;;;20.90;93.60;;;;;;5051409;28;20064;-61
2021/03/21 11:05:40;;;;;;;3.70;0.93;;;20.90;93.40;;;;;;5051324;28;20028;-63
2021/03/21 11:08:08;;;;;;;3.75;0.85;;;20.90;93.30;;;;;;5051720;28;20037;-63
2021/03/21 11:10:47;;;;;;;2.63;0.88;;;20.90;93.30;;;;;;5048389;28;20350;-63
2021/03/21 11:13:25;;;;;;;5.53;1.10;;;20.90;93.40;;;;;;5051069;28;20474;-62
2021/03/21 11:15:52;;;;;;;2.60;0.82;;;20.90;93.80;;;;;;5050883;28;20029;-62
2021/03/21 11:18:25;;;;;;;3.20;0.85;;;21.00;93.70;;;;;;5050776;28;20044;-62
2021/03/21 11:21:19;;;;;;;3.85;0.95;;;21.00;94.00;;;;;;5051328;28;20100;-63
2021/03/21 11:23:55;;;;;;;4.03;0.93;;;21.10;94.00;;;;;;5051083;28;20041;-62
2021/03/21 11:26:37;;;;;;;3.50;1.13;;;21.00;93.50;;;;;;5050734;28;20029;-62
2021/03/21 11:29:05;;;;;;;4.05;0.85;;;21.10;93.30;;;;;;5050856;28;20090;-62
2021/03/21 11:31:39;;;;;;;4.38;1.00;;;21.10;94.50;;;;;;5051038;28;20037;-63
2021/03/21 11:34:18;;;;;;;3.55;1.00;;;21.20;93.80;;;;;;5051178;28;20359;-63
2021/03/21 11:36:45;;;;;;;3.28;0.98;;;21.20;93.40;;;;;;5050315;28;20033;-62
2021/03/21 11:39:31;;;;;;;3.97;0.90;;;21.20;93.80;;;;;;5050594;28;20053;-62
2021/03/21 11:41:57;;;;;;;3.10;1.00;;;21.20;93.40;;;;;;5050676;28;20072;-62
2021/03/21 11:44:28;;;;;;;6.72;1.48;;;21.20;93.20;;;;;;5050936;28;20032;-62
2021/03/21 11:47:08;;;;;;;3.33;1.00;;;21.30;93.40;;;;;;5050216;28;20504;-62
2021/03/21 11:49:34;;;;;;;5.00;0.90;;;21.30;93.20;;;;;;5050970;28;20452;-62
2021/03/21 11:52:02;;;;;;;5.78;1.08;;;21.30;93.50;;;;;;5050486;28;20067;-62
2021/03/21 11:54:31;;;;;;;5.45;1.00;;;21.30;94.00;;;;;;5050682;28;20485;-62
2021/03/21 11:57:00;;;;;;;5.20;1.10;;;21.30;93.40;;;;;;5050230;28;20369;-62
2021/03/21 11:59:33;;;;;;;5.00;1.40;;;21.40;93.60;;;;;;5050276;28;20079;-62
2021/03/21 12:02:01;;;;;;;4.30;1.33;;;21.40;93.30;;;;;;5050353;28;20033;-62
2021/03/21 12:04:37;;;;;;;5.43;1.20;;;21.40;93.60;;;;;;5050578;28;20025;-63
2021/03/21 12:07:03;;;;;;;2.25;1.00;;;21.40;92.90;;;;;;5051049;28;20032;-63
2021/03/21 12:09:36;;;;;;;3.58;1.10;;;21.50;93.10;;;;;;5058695;28;20114;-62
2021/03/21 12:12:26;;;;;;;3.33;1.23;;;21.50;93.20;;;;;;5070667;28;20029;-62
2021/03/21 12:14:51;;;;;;;9.32;1.33;;;21.50;93.00;;;;;;5069382;28;20267;-62
2021/03/21 12:17:23;;;;;;;4.47;1.20;;;21.60;93.00;;;;;;5050136;28;20032;-63
2021/03/21 12:19:50;;;;;;;5.13;1.23;;;21.50;93.20;;;;;;5050002;28;20025;-66
2021/03/21 12:22:25;;;;;;;5.47;1.25;;;21.60;93.10;;;;;;5052799;28;20037;-63
2021/03/21 12:24:59;;;;;;;4.68;1.30;;;21.70;93.30;;;;;;5054281;28;20024;-67
2021/03/21 12:27:32;;;;;;;3.70;0.95;;;21.70;93.50;;;;;;5061983;28;20037;-64
2021/03/21 12:30:29;;;;;;;4.18;1.55;;;21.70;93.00;;;;;;5074221;28;20493;-64
2021/03/21 12:33:31;;;;;;;4.18;1.40;;;21.60;92.90;;;;;;5068270;28;20029;-62
2021/03/21 12:36:22;;;;;;;3.30;1.05;;;21.50;93.10;;;;;;5053941;28;20029;-65
2021/03/21 12:38:54;;;;;;;5.97;1.23;;;21.40;93.30;;;;;;5054025;28;20017;-62
2021/03/21 12:41:41;;;;;;;3.92;1.10;;;21.40;93.60;;;;;;5053561;28;20033;-64
2021/03/21 12:44:27;;;;;;;4.82;1.30;;;21.30;93.70;;;;;;5054098;28;20036;-64
2021/03/21 12:47:02;;;;;;;4.35;1.48;;;21.30;93.90;;;;;;5053770;28;20067;-67
2021/03/21 12:49:40;;;;;;;5.05;1.30;;;21.20;94.00;;;;;;5053813;28;20028;-64
2021/03/21 12:52:11;;;;;;;3.70;1.00;;;21.10;93.90;;;;;;5053692;28;20037;-66
2021/03/21 12:54:40;;;;;;;6.60;1.50;;;21.00;94.00;;;;;;5054040;28;20025;-65
2021/03/21 12:57:11;;;;;;;3.70;1.50;;;20.90;94.10;;;;;;5053972;28;20037;-63
2021/03/21 12:59:37;;;;;;;2.97;1.30;;;20.90;94.20;;;;;;5054110;28;20029;-62
2021/03/21 13:02:03;;;;;;;3.17;1.35;;;20.80;94.20;;;;;;5053748;28;20033;-66
2021/03/21 13:04:29;;;;;;;3.95;1.30;;;20.80;94.20;;;;;;5053039;28;20378;-65
2021/03/21 13:06:54;;;;;;;3.63;1.30;;;20.70;94.10;;;;;;5053068;28;20107;-66
2021/03/21 13:09:20;;;;;;;4.20;1.10;;;20.70;94.20;;;;;;5060072;28;20156;-65
2021/03/21 13:11:45;;;;;;;3.10;1.08;;;20.70;94.00;;;;;;5073584;28;20087;-63
2021/03/21 13:14:11;;;;;;;5.65;1.30;;;20.60;94.10;;;;;;5073234;28;20024;-64
2021/03/21 13:16:37;;;;;;;3.80;1.10;;;20.60;94.00;;;;;;5073489;28;20103;-63
2021/03/21 13:19:02;;;;;;;3.58;1.10;;;20.50;93.90;;;;;;5073515;28;20077;-63
2021/03/21 13:21:28;;;;;;;4.22;1.38;;;20.50;93.80;;;;;;5073237;28;20025;-65
2021/03/21 13:23:53;;;;;;;4.25;1.45;;;20.50;93.80;;;;;;5073218;28;20485;-63
2021/03/21 13:26:19;;;;;;;3.75;1.42;;;20.40;93.80;;;;;;5073420;28;20025;-66
2021/03/21 13:28:45;;;;;;;6.00;1.50;;;20.40;93.80;;;;;;5072918;28;20500;-66
2021/03/21 13:31:11;;;;;;;3.78;1.27;;;20.30;93.80;;;;;;5071335;28;20033;-63
2021/03/21 13:33:37;;;;;;;4.40;1.30;;;20.30;93.80;;;;;;5052701;28;20071;-66
2021/03/21 13:36:09;;;;;;;2.92;1.00;;;20.20;93.70;;;;;;5052543;28;20037;-66
2021/03/21 13:38:35;;;;;;;4.90;1.17;;;20.20;93.70;;;;;;5053215;28;20029;-64